sensor_id;sensor_type;location;lat;lon;timestamp;temperature;humidity
42617;DHT22;28250;52.320;0.360;2023-12-20T00:01:56;5.20;99.90
42617;DHT22;28250;52.320;0.360;2023-12-20T00:04:22;5.20;99.90
42617;DHT22;28250;52.320;0.360;2023-12-20T00:06:48;5.20;99.90
42617;DHT22;28250;52.320;0.360;2023-12-20T00:09:14;5.20;99.90
42617;DHT22;28250;52.320;0.360;2023-12-20T00:11:40;5.20;99.90
42617;DHT22;28250;52.320;0.360;2023-12-20T00:14:07;5.20;99.90
42617;DHT22;28250;52.320;0.360;2023-12-20T00:16:33;5.20;99.90
42617;DHT22;28250;52.320;0.360;2023-12-20T00:18:59;5.20;99.90
42617;DHT22;28250;52.320;0.360;2023-12-20T00:21:25;5.10;99.90
42617;DHT22;28250;52.320;0.360;2023-12-20T00:23:52;5.30;99.90
42617;DHT22;28250;52.320;0.360;2023-12-20T00:26:18;5.20;99.90
42617;DHT22;28250;52.320;0.360;2023-12-20T00:28:44;5.20;99.90
42617;DHT22;28250;52.320;0.360;2023-12-20T00:31:10;5.20;99.90
42617;DHT22;28250;52.320;0.360;2023-12-20T00:33:36;5.20;99.90
42617;DHT22;28250;52.320;0.360;2023-12-20T00:36:02;5.10;99.90
42617;DHT22;28250;52.320;0.360;2023-12-20T00:38:28;5.20;99.90
42617;DHT22;28250;52.320;0.360;2023-12-20T00:40:54;5.30;99.90
42617;DHT22;28250;52.320;0.360;2023-12-20T00:43:21;5.20;99.90
42617;DHT22;28250;52.320;0.360;2023-12-20T00:45:47;5.30;99.90
42617;DHT22;28250;52.320;0.360;2023-12-20T00:48:13;5.30;99.90
42617;DHT22;28250;52.320;0.360;2023-12-20T00:50:39;5.20;99.90
42617;DHT22;28250;52.320;0.360;2023-12-20T00:53:05;5.30;99.90
42617;DHT22;28250;52.320;0.360;2023-12-20T00:55:31;5.20;99.90
42617;DHT22;28250;52.320;0.360;2023-12-20T00:57:57;5.30;99.90
42617;DHT22;28250;52.320;0.360;2023-12-20T01:00:24;5.30;99.90
42617;DHT22;28250;52.320;0.360;2023-12-20T01:02:51;5.20;99.90
42617;DHT22;28250;52.320;0.360;2023-12-20T01:05:18;5.20;99.90
42617;DHT22;28250;52.320;0.360;2023-12-20T01:07:45;5.30;99.90
42617;DHT22;28250;52.320;0.360;2023-12-20T01:10:11;5.20;99.90
42617;DHT22;28250;52.320;0.360;2023-12-20T01:12:37;5.30;99.90
42617;DHT22;28250;52.320;0.360;2023-12-20T01:15:03;5.40;99.90
42617;DHT22;28250;52.320;0.360;2023-12-20T01:17:30;5.30;99.90
42617;DHT22;28250;52.320;0.360;2023-12-20T01:19:56;5.20;99.90
42617;DHT22;28250;52.320;0.360;2023-12-20T01:22:22;5.30;99.90
42617;DHT22;28250;52.320;0.360;2023-12-20T01:24:48;5.30;99.90
42617;DHT22;28250;52.320;0.360;2023-12-20T01:27:14;5.20;99.90
42617;DHT22;28250;52.320;0.360;2023-12-20T01:29:40;5.20;99.90
42617;DHT22;28250;52.320;0.360;2023-12-20T01:32:06;5.20;99.90
42617;DHT22;28250;52.320;0.360;2023-12-20T01:34:32;5.20;99.90
42617;DHT22;28250;52.320;0.360;2023-12-20T01:36:59;5.20;99.90
42617;DHT22;28250;52.320;0.360;2023-12-20T01:39:26;5.20;99.90
42617;DHT22;28250;52.320;0.360;2023-12-20T01:41:52;5.10;99.90
42617;DHT22;28250;52.320;0.360;2023-12-20T01:44:18;5.10;99.90
42617;DHT22;28250;52.320;0.360;2023-12-20T01:46:44;5.10;99.90
42617;DHT22;28250;52.320;0.360;2023-12-20T01:49:11;5.10;99.90
42617;DHT22;28250;52.320;0.360;2023-12-20T01:51:37;5.00;99.90
42617;DHT22;28250;52.320;0.360;2023-12-20T01:54:04;5.00;99.90
42617;DHT22;28250;52.320;0.360;2023-12-20T01:56:31;5.00;99.90
42617;DHT22;28250;52.320;0.360;2023-12-20T01:58:58;5.00;99.90
42617;DHT22;28250;52.320;0.360;2023-12-20T02:01:25;5.00;99.90
42617;DHT22;28250;52.320;0.360;2023-12-20T02:03:51;5.00;99.90
42617;DHT22;28250;52.320;0.360;2023-12-20T02:06:18;5.00;99.90
42617;DHT22;28250;52.320;0.360;2023-12-20T02:08:47;4.90;99.90
42617;DHT22;28250;52.320;0.360;2023-12-20T02:11:15;4.90;99.90
42617;DHT22;28250;52.320;0.360;2023-12-20T02:13:42;4.90;99.90
42617;DHT22;28250;52.320;0.360;2023-12-20T02:16:08;4.90;99.90
42617;DHT22;28250;52.320;0.360;2023-12-20T02:18:34;4.80;99.90
42617;DHT22;28250;52.320;0.360;2023-12-20T02:21:00;4.80;99.90
42617;DHT22;28250;52.320;0.360;2023-12-20T02:23:26;4.80;99.90
42617;DHT22;28250;52.320;0.360;2023-12-20T02:25:52;4.90;99.90
42617;DHT22;28250;52.320;0.360;2023-12-20T02:28:19;4.90;99.90
42617;DHT22;28250;52.320;0.360;2023-12-20T02:30:45;4.90;99.90
42617;DHT22;28250;52.320;0.360;2023-12-20T02:33:12;5.00;99.90
42617;DHT22;28250;52.320;0.360;2023-12-20T02:35:39;5.10;99.90
42617;DHT22;28250;52.320;0.360;2023-12-20T02:38:05;5.10;99.90
42617;DHT22;28250;52.320;0.360;2023-12-20T02:40:31;5.10;99.90
42617;DHT22;28250;52.320;0.360;2023-12-20T02:42:58;5.20;99.90
42617;DHT22;28250;52.320;0.360;2023-12-20T02:45:24;5.20;99.90
42617;DHT22;28250;52.320;0.360;2023-12-20T02:47:50;5.10;99.90
42617;DHT22;28250;52.320;0.360;2023-12-20T02:50:16;5.20;99.90
42617;DHT22;28250;52.320;0.360;2023-12-20T02:52:45;5.10;99.90
42617;DHT22;28250;52.320;0.360;2023-12-20T02:55:11;5.10;99.90
42617;DHT22;28250;52.320;0.360;2023-12-20T02:57:37;5.20;99.90
42617;DHT22;28250;52.320;0.360;2023-12-20T03:00:08;5.20;99.90
42617;DHT22;28250;52.320;0.360;2023-12-20T03:02:36;5.30;99.90
42617;DHT22;28250;52.320;0.360;2023-12-20T03:05:02;5.20;99.90
42617;DHT22;28250;52.320;0.360;2023-12-20T03:07:29;5.10;99.90
42617;DHT22;28250;52.320;0.360;2023-12-20T03:16:28;4.90;99.90
42617;DHT22;28250;52.320;0.360;2023-12-20T03:18:54;4.90;99.90
42617;DHT22;28250;52.320;0.360;2023-12-20T03:21:20;4.80;99.90
42617;DHT22;28250;52.320;0.360;2023-12-20T03:23:46;4.90;99.90
42617;DHT22;28250;52.320;0.360;2023-12-20T03:26:12;4.80;99.90
42617;DHT22;28250;52.320;0.360;2023-12-20T03:28:38;4.80;99.90
42617;DHT22;28250;52.320;0.360;2023-12-20T03:31:04;4.80;99.90
42617;DHT22;28250;52.320;0.360;2023-12-20T03:33:30;4.80;99.90
42617;DHT22;28250;52.320;0.360;2023-12-20T03:35:56;4.80;99.90
42617;DHT22;28250;52.320;0.360;2023-12-20T03:38:22;4.80;99.90
42617;DHT22;28250;52.320;0.360;2023-12-20T03:40:51;4.90;99.90
42617;DHT22;28250;52.320;0.360;2023-12-20T03:43:17;4.90;99.90
42617;DHT22;28250;52.320;0.360;2023-12-20T03:45:43;4.90;99.90
42617;DHT22;28250;52.320;0.360;2023-12-20T03:48:09;5.00;99.90
42617;DHT22;28250;52.320;0.360;2023-12-20T03:50:35;4.90;99.90
42617;DHT22;28250;52.320;0.360;2023-12-20T03:53:02;5.00;99.90
42617;DHT22;28250;52.320;0.360;2023-12-20T03:55:30;5.00;99.90
42617;DHT22;28250;52.320;0.360;2023-12-20T03:58:02;5.00;99.90
42617;DHT22;28250;52.320;0.360;2023-12-20T04:00:28;5.10;99.90
42617;DHT22;28250;52.320;0.360;2023-12-20T04:02:54;5.20;99.90
42617;DHT22;28250;52.320;0.360;2023-12-20T04:05:20;5.20;99.90
42617;DHT22;28250;52.320;0.360;2023-12-20T04:07:46;5.10;99.90
42617;DHT22;28250;52.320;0.360;2023-12-20T04:10:12;5.00;99.90
42617;DHT22;28250;52.320;0.360;2023-12-20T04:12:38;5.00;99.90
42617;DHT22;28250;52.320;0.360;2023-12-20T04:15:05;4.90;99.90
42617;DHT22;28250;52.320;0.360;2023-12-20T04:17:35;4.90;99.90
42617;DHT22;28250;52.320;0.360;2023-12-20T04:20:02;5.00;99.90
42617;DHT22;28250;52.320;0.360;2023-12-20T04:22:28;4.90;99.90
42617;DHT22;28250;52.320;0.360;2023-12-20T04:24:54;4.90;99.90
42617;DHT22;28250;52.320;0.360;2023-12-20T04:27:20;4.80;99.90
42617;DHT22;28250;52.320;0.360;2023-12-20T04:29:46;4.80;99.90
42617;DHT22;28250;52.320;0.360;2023-12-20T04:32:12;4.90;99.90
42617;DHT22;28250;52.320;0.360;2023-12-20T04:34:39;4.90;99.90
42617;DHT22;28250;52.320;0.360;2023-12-20T04:37:05;5.00;99.90
42617;DHT22;28250;52.320;0.360;2023-12-20T04:39:31;5.00;99.90
42617;DHT22;28250;52.320;0.360;2023-12-20T04:41:57;5.10;99.90
42617;DHT22;28250;52.320;0.360;2023-12-20T04:44:23;5.10;99.90
42617;DHT22;28250;52.320;0.360;2023-12-20T04:46:49;5.10;99.90
42617;DHT22;28250;52.320;0.360;2023-12-20T04:49:15;5.00;99.90
42617;DHT22;28250;52.320;0.360;2023-12-20T04:51:41;5.10;99.90
42617;DHT22;28250;52.320;0.360;2023-12-20T04:54:07;5.10;99.90
42617;DHT22;28250;52.320;0.360;2023-12-20T04:56:33;5.20;99.90
42617;DHT22;28250;52.320;0.360;2023-12-20T04:58:59;5.30;99.90
42617;DHT22;28250;52.320;0.360;2023-12-20T05:01:25;5.30;99.90
42617;DHT22;28250;52.320;0.360;2023-12-20T05:03:51;5.30;99.90
42617;DHT22;28250;52.320;0.360;2023-12-20T05:06:17;5.30;99.90
42617;DHT22;28250;52.320;0.360;2023-12-20T05:08:43;5.30;99.90
42617;DHT22;28250;52.320;0.360;2023-12-20T05:11:09;5.30;99.90
42617;DHT22;28250;52.320;0.360;2023-12-20T05:13:35;5.40;99.90
42617;DHT22;28250;52.320;0.360;2023-12-20T05:16:01;5.50;99.90
42617;DHT22;28250;52.320;0.360;2023-12-20T05:18:28;5.50;99.90
42617;DHT22;28250;52.320;0.360;2023-12-20T05:20:54;5.60;99.90
42617;DHT22;28250;52.320;0.360;2023-12-20T05:23:20;5.60;99.90
42617;DHT22;28250;52.320;0.360;2023-12-20T05:25:46;5.60;99.90
42617;DHT22;28250;52.320;0.360;2023-12-20T05:28:12;5.60;99.90
42617;DHT22;28250;52.320;0.360;2023-12-20T05:30:38;5.70;99.90
42617;DHT22;28250;52.320;0.360;2023-12-20T05:33:04;5.80;99.90
42617;DHT22;28250;52.320;0.360;2023-12-20T05:35:30;5.80;99.90
42617;DHT22;28250;52.320;0.360;2023-12-20T05:37:56;5.80;99.90
42617;DHT22;28250;52.320;0.360;2023-12-20T05:40:22;5.80;99.90
42617;DHT22;28250;52.320;0.360;2023-12-20T05:42:48;5.80;99.90
42617;DHT22;28250;52.320;0.360;2023-12-20T05:45:15;5.70;99.90
42617;DHT22;28250;52.320;0.360;2023-12-20T05:47:41;5.70;99.90
42617;DHT22;28250;52.320;0.360;2023-12-20T05:50:07;5.80;99.90
42617;DHT22;28250;52.320;0.360;2023-12-20T05:52:33;5.70;99.90
42617;DHT22;28250;52.320;0.360;2023-12-20T05:54:59;5.70;99.90
42617;DHT22;28250;52.320;0.360;2023-12-20T05:57:28;5.70;99.90
42617;DHT22;28250;52.320;0.360;2023-12-20T05:59:54;5.70;99.90
42617;DHT22;28250;52.320;0.360;2023-12-20T06:02:20;5.70;99.90
42617;DHT22;28250;52.320;0.360;2023-12-20T06:04:46;5.70;99.90
42617;DHT22;28250;52.320;0.360;2023-12-20T06:07:12;5.80;99.90
42617;DHT22;28250;52.320;0.360;2023-12-20T06:09:39;5.80;99.90
42617;DHT22;28250;52.320;0.360;2023-12-20T06:12:06;5.90;99.90
42617;DHT22;28250;52.320;0.360;2023-12-20T06:14:32;5.90;99.90
42617;DHT22;28250;52.320;0.360;2023-12-20T06:16:58;6.00;99.90
42617;DHT22;28250;52.320;0.360;2023-12-20T06:19:24;6.00;99.90
42617;DHT22;28250;52.320;0.360;2023-12-20T06:21:50;6.20;99.90
42617;DHT22;28250;52.320;0.360;2023-12-20T06:24:17;6.10;99.90
42617;DHT22;28250;52.320;0.360;2023-12-20T06:26:43;6.20;99.90
42617;DHT22;28250;52.320;0.360;2023-12-20T06:29:09;6.10;99.90
42617;DHT22;28250;52.320;0.360;2023-12-20T06:31:35;6.10;99.90
42617;DHT22;28250;52.320;0.360;2023-12-20T06:34:01;6.20;99.90
42617;DHT22;28250;52.320;0.360;2023-12-20T06:36:27;6.20;99.90
42617;DHT22;28250;52.320;0.360;2023-12-20T06:38:53;6.30;99.90
42617;DHT22;28250;52.320;0.360;2023-12-20T06:41:19;6.40;99.90
42617;DHT22;28250;52.320;0.360;2023-12-20T06:43:45;6.40;99.90
42617;DHT22;28250;52.320;0.360;2023-12-20T06:46:12;6.40;99.90
42617;DHT22;28250;52.320;0.360;2023-12-20T06:48:39;6.30;99.90
42617;DHT22;28250;52.320;0.360;2023-12-20T06:51:06;6.30;99.90
42617;DHT22;28250;52.320;0.360;2023-12-20T06:53:32;6.40;99.90
42617;DHT22;28250;52.320;0.360;2023-12-20T06:55:58;6.30;99.90
42617;DHT22;28250;52.320;0.360;2023-12-20T06:58:24;6.40;99.90
42617;DHT22;28250;52.320;0.360;2023-12-20T07:00:50;6.30;99.90
42617;DHT22;28250;52.320;0.360;2023-12-20T07:03:17;6.30;99.90
42617;DHT22;28250;52.320;0.360;2023-12-20T07:05:44;6.20;99.90
42617;DHT22;28250;52.320;0.360;2023-12-20T07:08:10;6.20;99.90
42617;DHT22;28250;52.320;0.360;2023-12-20T07:10:36;6.20;99.90
42617;DHT22;28250;52.320;0.360;2023-12-20T07:13:03;6.20;99.90
42617;DHT22;28250;52.320;0.360;2023-12-20T07:15:29;6.10;99.90
42617;DHT22;28250;52.320;0.360;2023-12-20T07:17:55;6.00;99.90
42617;DHT22;28250;52.320;0.360;2023-12-20T07:20:21;6.00;99.90
42617;DHT22;28250;52.320;0.360;2023-12-20T07:22:47;6.00;99.90
42617;DHT22;28250;52.320;0.360;2023-12-20T07:25:13;6.00;99.90
42617;DHT22;28250;52.320;0.360;2023-12-20T07:27:39;6.00;99.90
42617;DHT22;28250;52.320;0.360;2023-12-20T07:30:05;6.00;99.90
42617;DHT22;28250;52.320;0.360;2023-12-20T07:32:32;5.90;99.90
42617;DHT22;28250;52.320;0.360;2023-12-20T07:34:58;5.90;99.90
42617;DHT22;28250;52.320;0.360;2023-12-20T07:37:25;5.90;99.90
42617;DHT22;28250;52.320;0.360;2023-12-20T07:39:51;5.90;99.90
42617;DHT22;28250;52.320;0.360;2023-12-20T07:42:17;5.90;99.90
42617;DHT22;28250;52.320;0.360;2023-12-20T07:44:43;5.90;99.90
42617;DHT22;28250;52.320;0.360;2023-12-20T07:47:09;5.90;99.90
42617;DHT22;28250;52.320;0.360;2023-12-20T07:49:35;5.90;99.90
42617;DHT22;28250;52.320;0.360;2023-12-20T07:52:01;6.00;99.90
42617;DHT22;28250;52.320;0.360;2023-12-20T07:54:27;6.00;99.90
42617;DHT22;28250;52.320;0.360;2023-12-20T07:56:53;6.00;99.90
42617;DHT22;28250;52.320;0.360;2023-12-20T07:59:19;6.10;99.90
42617;DHT22;28250;52.320;0.360;2023-12-20T08:01:45;6.20;99.90
42617;DHT22;28250;52.320;0.360;2023-12-20T08:04:11;6.20;99.90
42617;DHT22;28250;52.320;0.360;2023-12-20T08:06:38;6.20;99.90
42617;DHT22;28250;52.320;0.360;2023-12-20T08:09:04;6.20;99.90
42617;DHT22;28250;52.320;0.360;2023-12-20T08:11:30;6.20;99.90
42617;DHT22;28250;52.320;0.360;2023-12-20T08:13:56;6.20;99.90
42617;DHT22;28250;52.320;0.360;2023-12-20T08:16:22;6.10;99.90
42617;DHT22;28250;52.320;0.360;2023-12-20T08:18:48;6.20;99.90
42617;DHT22;28250;52.320;0.360;2023-12-20T08:21:14;6.10;99.90
42617;DHT22;28250;52.320;0.360;2023-12-20T08:23:40;6.10;99.90
42617;DHT22;28250;52.320;0.360;2023-12-20T08:26:07;6.10;99.90
42617;DHT22;28250;52.320;0.360;2023-12-20T08:28:34;6.10;99.90
42617;DHT22;28250;52.320;0.360;2023-12-20T08:31:00;6.00;99.90
42617;DHT22;28250;52.320;0.360;2023-12-20T08:33:27;6.00;99.90
42617;DHT22;28250;52.320;0.360;2023-12-20T08:35:53;6.00;99.90
42617;DHT22;28250;52.320;0.360;2023-12-20T08:38:19;6.00;99.90
42617;DHT22;28250;52.320;0.360;2023-12-20T08:40:45;6.10;99.90
42617;DHT22;28250;52.320;0.360;2023-12-20T08:43:11;6.10;99.90
42617;DHT22;28250;52.320;0.360;2023-12-20T08:45:38;6.20;99.90
42617;DHT22;28250;52.320;0.360;2023-12-20T08:48:05;6.30;99.90
42617;DHT22;28250;52.320;0.360;2023-12-20T08:50:31;6.30;99.90
42617;DHT22;28250;52.320;0.360;2023-12-20T08:52:57;6.40;99.90
42617;DHT22;28250;52.320;0.360;2023-12-20T08:55:23;6.50;99.90
42617;DHT22;28250;52.320;0.360;2023-12-20T08:57:49;6.50;99.90
42617;DHT22;28250;52.320;0.360;2023-12-20T09:00:16;6.50;99.90
42617;DHT22;28250;52.320;0.360;2023-12-20T09:02:43;6.50;99.90
42617;DHT22;28250;52.320;0.360;2023-12-20T09:05:09;6.60;99.90
42617;DHT22;28250;52.320;0.360;2023-12-20T09:07:35;6.70;99.90
42617;DHT22;28250;52.320;0.360;2023-12-20T09:10:01;6.70;99.90
42617;DHT22;28250;52.320;0.360;2023-12-20T09:12:27;6.80;99.90
42617;DHT22;28250;52.320;0.360;2023-12-20T09:14:53;6.80;99.90
42617;DHT22;28250;52.320;0.360;2023-12-20T09:17:19;6.90;99.90
42617;DHT22;28250;52.320;0.360;2023-12-20T09:19:48;7.00;99.90
42617;DHT22;28250;52.320;0.360;2023-12-20T09:22:14;7.00;99.90
42617;DHT22;28250;52.320;0.360;2023-12-20T09:24:40;7.10;99.90
42617;DHT22;28250;52.320;0.360;2023-12-20T09:27:07;7.20;99.90
42617;DHT22;28250;52.320;0.360;2023-12-20T09:29:33;7.30;99.90
42617;DHT22;28250;52.320;0.360;2023-12-20T09:31:59;7.40;99.90
42617;DHT22;28250;52.320;0.360;2023-12-20T09:34:25;7.40;99.90
42617;DHT22;28250;52.320;0.360;2023-12-20T09:36:55;7.50;99.90
42617;DHT22;28250;52.320;0.360;2023-12-20T09:39:21;7.60;99.90
42617;DHT22;28250;52.320;0.360;2023-12-20T09:42:06;7.60;99.90
42617;DHT22;28250;52.320;0.360;2023-12-20T09:44:33;7.70;99.90
42617;DHT22;28250;52.320;0.360;2023-12-20T09:47:03;7.70;99.90
42617;DHT22;28250;52.320;0.360;2023-12-20T09:49:30;7.70;99.90
42617;DHT22;28250;52.320;0.360;2023-12-20T09:51:57;7.60;99.90
42617;DHT22;28250;52.320;0.360;2023-12-20T09:54:23;7.70;99.90
42617;DHT22;28250;52.320;0.360;2023-12-20T09:56:50;7.60;99.90
42617;DHT22;28250;52.320;0.360;2023-12-20T09:59:16;7.70;99.90
42617;DHT22;28250;52.320;0.360;2023-12-20T10:01:43;7.70;99.90
42617;DHT22;28250;52.320;0.360;2023-12-20T10:04:10;7.60;99.90
42617;DHT22;28250;52.320;0.360;2023-12-20T10:06:40;7.60;99.90
42617;DHT22;28250;52.320;0.360;2023-12-20T10:09:06;7.70;99.90
42617;DHT22;28250;52.320;0.360;2023-12-20T10:11:35;7.70;99.90
42617;DHT22;28250;52.320;0.360;2023-12-20T10:14:03;7.70;99.90
42617;DHT22;28250;52.320;0.360;2023-12-20T10:16:30;7.70;99.90
42617;DHT22;28250;52.320;0.360;2023-12-20T10:18:58;7.70;99.90
42617;DHT22;28250;52.320;0.360;2023-12-20T10:21:25;7.70;99.90
42617;DHT22;28250;52.320;0.360;2023-12-20T10:23:55;7.80;99.90
42617;DHT22;28250;52.320;0.360;2023-12-20T10:26:23;7.80;99.90
42617;DHT22;28250;52.320;0.360;2023-12-20T10:28:55;7.80;99.90
42617;DHT22;28250;52.320;0.360;2023-12-20T10:31:33;7.80;99.90
42617;DHT22;28250;52.320;0.360;2023-12-20T10:34:03;7.80;99.90
42617;DHT22;28250;52.320;0.360;2023-12-20T10:36:31;7.80;99.90
42617;DHT22;28250;52.320;0.360;2023-12-20T10:38:58;7.80;99.90
42617;DHT22;28250;52.320;0.360;2023-12-20T10:41:29;7.80;99.90
42617;DHT22;28250;52.320;0.360;2023-12-20T10:44:02;7.90;99.90
42617;DHT22;28250;52.320;0.360;2023-12-20T10:46:31;7.90;99.90
42617;DHT22;28250;52.320;0.360;2023-12-20T10:49:02;7.90;99.90
42617;DHT22;28250;52.320;0.360;2023-12-20T10:51:29;7.90;99.90
42617;DHT22;28250;52.320;0.360;2023-12-20T10:53:56;7.90;99.90
42617;DHT22;28250;52.320;0.360;2023-12-20T10:56:22;8.00;99.90
42617;DHT22;28250;52.320;0.360;2023-12-20T10:58:52;8.00;99.90
42617;DHT22;28250;52.320;0.360;2023-12-20T11:01:19;8.00;99.90
42617;DHT22;28250;52.320;0.360;2023-12-20T11:03:49;8.10;99.90
42617;DHT22;28250;52.320;0.360;2023-12-20T11:06:36;8.10;99.90
42617;DHT22;28250;52.320;0.360;2023-12-20T11:14:50;8.30;99.90
42617;DHT22;28250;52.320;0.360;2023-12-20T11:17:22;8.30;99.90
42617;DHT22;28250;52.320;0.360;2023-12-20T11:22:20;8.40;99.90
42617;DHT22;28250;52.320;0.360;2023-12-20T11:24:47;8.40;99.90
42617;DHT22;28250;52.320;0.360;2023-12-20T11:27:14;8.40;99.90
42617;DHT22;28250;52.320;0.360;2023-12-20T11:29:41;8.50;99.90
42617;DHT22;28250;52.320;0.360;2023-12-20T11:37:35;8.60;99.90
42617;DHT22;28250;52.320;0.360;2023-12-20T11:40:11;8.60;99.90
42617;DHT22;28250;52.320;0.360;2023-12-20T11:42:41;8.60;99.90
42617;DHT22;28250;52.320;0.360;2023-12-20T11:45:11;8.70;99.90
42617;DHT22;28250;52.320;0.360;2023-12-20T11:47:43;8.80;99.90
42617;DHT22;28250;52.320;0.360;2023-12-20T11:50:12;8.90;99.90
42617;DHT22;28250;52.320;0.360;2023-12-20T11:52:38;8.90;99.90
42617;DHT22;28250;52.320;0.360;2023-12-20T11:55:05;9.00;99.90
42617;DHT22;28250;52.320;0.360;2023-12-20T11:57:31;9.10;99.90
42617;DHT22;28250;52.320;0.360;2023-12-20T11:59:59;9.20;99.90
42617;DHT22;28250;52.320;0.360;2023-12-20T12:02:25;9.40;99.90
42617;DHT22;28250;52.320;0.360;2023-12-20T12:04:51;9.50;99.90
42617;DHT22;28250;52.320;0.360;2023-12-20T12:07:18;9.40;99.90
42617;DHT22;28250;52.320;0.360;2023-12-20T12:09:44;9.50;99.90
42617;DHT22;28250;52.320;0.360;2023-12-20T12:12:12;9.60;99.90
42617;DHT22;28250;52.320;0.360;2023-12-20T12:14:38;9.60;99.90
42617;DHT22;28250;52.320;0.360;2023-12-20T12:17:13;9.60;99.90
42617;DHT22;28250;52.320;0.360;2023-12-20T12:19:43;9.50;99.90
42617;DHT22;28250;52.320;0.360;2023-12-20T12:22:10;9.50;99.90
42617;DHT22;28250;52.320;0.360;2023-12-20T12:24:43;9.50;99.90
42617;DHT22;28250;52.320;0.360;2023-12-20T12:27:11;9.50;99.90
42617;DHT22;28250;52.320;0.360;2023-12-20T12:29:38;9.40;99.90
42617;DHT22;28250;52.320;0.360;2023-12-20T12:32:08;9.50;99.90
42617;DHT22;28250;52.320;0.360;2023-12-20T12:34:35;9.50;99.90
42617;DHT22;28250;52.320;0.360;2023-12-20T12:37:03;9.50;99.90
42617;DHT22;28250;52.320;0.360;2023-12-20T12:39:30;9.40;99.90
42617;DHT22;28250;52.320;0.360;2023-12-20T12:41:56;9.40;99.90
42617;DHT22;28250;52.320;0.360;2023-12-20T12:44:23;9.50;99.90
42617;DHT22;28250;52.320;0.360;2023-12-20T12:46:52;9.40;99.90
42617;DHT22;28250;52.320;0.360;2023-12-20T12:49:22;9.40;99.90
42617;DHT22;28250;52.320;0.360;2023-12-20T12:51:48;9.50;99.90
42617;DHT22;28250;52.320;0.360;2023-12-20T12:54:14;9.40;99.90
42617;DHT22;28250;52.320;0.360;2023-12-20T12:56:42;9.40;99.90
42617;DHT22;28250;52.320;0.360;2023-12-20T12:59:09;9.40;99.90
42617;DHT22;28250;52.320;0.360;2023-12-20T13:01:35;9.30;99.90
42617;DHT22;28250;52.320;0.360;2023-12-20T13:04:01;9.20;99.90
42617;DHT22;28250;52.320;0.360;2023-12-20T13:06:29;9.20;99.90
42617;DHT22;28250;52.320;0.360;2023-12-20T13:08:55;9.20;99.90
42617;DHT22;28250;52.320;0.360;2023-12-20T13:11:21;9.20;99.90
42617;DHT22;28250;52.320;0.360;2023-12-20T13:13:47;9.20;99.90
42617;DHT22;28250;52.320;0.360;2023-12-20T13:16:13;9.20;99.90
42617;DHT22;28250;52.320;0.360;2023-12-20T13:18:41;9.20;99.90
42617;DHT22;28250;52.320;0.360;2023-12-20T13:21:08;9.20;99.90
42617;DHT22;28250;52.320;0.360;2023-12-20T13:23:35;9.20;99.90
42617;DHT22;28250;52.320;0.360;2023-12-20T13:26:01;9.20;99.90
42617;DHT22;28250;52.320;0.360;2023-12-20T13:28:28;9.20;99.90
42617;DHT22;28250;52.320;0.360;2023-12-20T13:30:55;9.30;99.90
42617;DHT22;28250;52.320;0.360;2023-12-20T13:33:21;9.30;99.90
42617;DHT22;28250;52.320;0.360;2023-12-20T13:35:47;9.30;99.90
42617;DHT22;28250;52.320;0.360;2023-12-20T13:38:13;9.30;99.90
42617;DHT22;28250;52.320;0.360;2023-12-20T13:40:40;9.30;99.90
42617;DHT22;28250;52.320;0.360;2023-12-20T13:43:06;9.30;99.90
42617;DHT22;28250;52.320;0.360;2023-12-20T13:45:32;9.30;99.90
42617;DHT22;28250;52.320;0.360;2023-12-20T13:47:58;9.30;99.90
42617;DHT22;28250;52.320;0.360;2023-12-20T13:50:24;9.30;99.90
42617;DHT22;28250;52.320;0.360;2023-12-20T13:52:51;9.40;99.90
42617;DHT22;28250;52.320;0.360;2023-12-20T13:55:17;9.40;99.90
42617;DHT22;28250;52.320;0.360;2023-12-20T13:57:48;9.40;99.90
42617;DHT22;28250;52.320;0.360;2023-12-20T14:00:14;9.40;99.90
42617;DHT22;28250;52.320;0.360;2023-12-20T14:02:41;9.40;99.90
42617;DHT22;28250;52.320;0.360;2023-12-20T14:05:09;9.50;99.90
42617;DHT22;28250;52.320;0.360;2023-12-20T14:07:36;9.50;99.90
42617;DHT22;28250;52.320;0.360;2023-12-20T14:10:03;9.50;99.90
42617;DHT22;28250;52.320;0.360;2023-12-20T14:12:29;9.60;99.90
42617;DHT22;28250;52.320;0.360;2023-12-20T14:14:55;9.60;99.90
42617;DHT22;28250;52.320;0.360;2023-12-20T14:17:22;9.70;99.90
42617;DHT22;28250;52.320;0.360;2023-12-20T14:19:48;9.80;99.90
42617;DHT22;28250;52.320;0.360;2023-12-20T14:22:14;9.70;99.90
42617;DHT22;28250;52.320;0.360;2023-12-20T14:24:42;9.70;99.90
42617;DHT22;28250;52.320;0.360;2023-12-20T14:27:09;9.70;99.90
42617;DHT22;28250;52.320;0.360;2023-12-20T14:29:36;9.70;99.90
42617;DHT22;28250;52.320;0.360;2023-12-20T14:32:03;9.70;99.90
42617;DHT22;28250;52.320;0.360;2023-12-20T14:34:30;9.70;99.90
42617;DHT22;28250;52.320;0.360;2023-12-20T14:36:56;9.80;99.90
42617;DHT22;28250;52.320;0.360;2023-12-20T14:39:22;9.70;99.90
42617;DHT22;28250;52.320;0.360;2023-12-20T14:41:49;9.70;99.90
42617;DHT22;28250;52.320;0.360;2023-12-20T14:44:15;9.60;99.90
42617;DHT22;28250;52.320;0.360;2023-12-20T14:46:42;9.60;99.90
42617;DHT22;28250;52.320;0.360;2023-12-20T14:49:08;9.60;99.90
42617;DHT22;28250;52.320;0.360;2023-12-20T14:51:34;9.50;99.90
42617;DHT22;28250;52.320;0.360;2023-12-20T14:54:02;9.50;99.90
42617;DHT22;28250;52.320;0.360;2023-12-20T14:56:28;9.50;99.90
42617;DHT22;28250;52.320;0.360;2023-12-20T14:58:54;9.50;99.90
42617;DHT22;28250;52.320;0.360;2023-12-20T15:01:20;9.50;99.90
42617;DHT22;28250;52.320;0.360;2023-12-20T15:03:47;9.50;99.90
42617;DHT22;28250;52.320;0.360;2023-12-20T15:06:14;9.40;99.90
42617;DHT22;28250;52.320;0.360;2023-12-20T15:08:40;9.40;99.90
42617;DHT22;28250;52.320;0.360;2023-12-20T15:11:07;9.40;99.90
42617;DHT22;28250;52.320;0.360;2023-12-20T15:13:33;9.50;99.90
42617;DHT22;28250;52.320;0.360;2023-12-20T15:15:59;9.50;99.90
42617;DHT22;28250;52.320;0.360;2023-12-20T15:18:25;9.50;99.90
42617;DHT22;28250;52.320;0.360;2023-12-20T15:20:51;9.50;99.90
42617;DHT22;28250;52.320;0.360;2023-12-20T15:23:17;9.50;99.90
42617;DHT22;28250;52.320;0.360;2023-12-20T15:25:44;9.50;99.90
42617;DHT22;28250;52.320;0.360;2023-12-20T15:28:11;9.50;99.90
42617;DHT22;28250;52.320;0.360;2023-12-20T15:30:37;9.50;99.90
42617;DHT22;28250;52.320;0.360;2023-12-20T15:33:04;9.50;99.90
42617;DHT22;28250;52.320;0.360;2023-12-20T15:35:30;9.50;99.90
42617;DHT22;28250;52.320;0.360;2023-12-20T15:37:57;9.60;99.90
42617;DHT22;28250;52.320;0.360;2023-12-20T15:40:24;9.60;99.90
42617;DHT22;28250;52.320;0.360;2023-12-20T15:42:50;9.60;99.90
42617;DHT22;28250;52.320;0.360;2023-12-20T15:45:16;9.60;99.90
42617;DHT22;28250;52.320;0.360;2023-12-20T15:47:42;9.60;99.90
42617;DHT22;28250;52.320;0.360;2023-12-20T15:50:08;9.50;99.90
42617;DHT22;28250;52.320;0.360;2023-12-20T15:52:34;9.50;99.90
42617;DHT22;28250;52.320;0.360;2023-12-20T15:55:02;9.50;99.90
42617;DHT22;28250;52.320;0.360;2023-12-20T15:57:28;9.50;99.90
42617;DHT22;28250;52.320;0.360;2023-12-20T15:59:54;9.50;99.90
42617;DHT22;28250;52.320;0.360;2023-12-20T16:02:20;9.50;99.90